Abernant, Alabama
Current Conditions -  °F | °C
As of 11:53 AM on Sunday 25 Jan 2015 (Local Time) from KTCL Reporting Station
Clear Clear  
Wind Chill: 57°   Ceiling: Unl
Heat Index: 57°   Visibility: 10mi
Dew Point: 38°   Wind: 12mph
Humidity: 49%   Direction: 210°SSW
Pressure: 29.83"   Gusts: NA
Location:  33.29°N, 87.2°W
Report Text: KTCL 251753Z 21010KT 10SM CLR 14/03 A2983 RMK AO2 PRESFR SLP101 T01390033 10139 21006 58034
Loading
Personal Weather Stations






























Interactive Weather Map New forecast layout! Learn more

10-Day Weather Forecast

Advertisements
Track Severe Weather on mobile